createdAt,value
2023-11-23T00:00:49.423Z,2.80
2023-11-23T00:01:50.932Z,2.80
2023-11-23T00:02:52.423Z,2.70
2023-11-23T00:03:54.016Z,2.70
2023-11-23T00:04:55.375Z,2.70
2023-11-23T00:05:56.893Z,2.80
2023-11-23T00:06:58.464Z,2.80
2023-11-23T00:08:01.394Z,2.80
2023-11-23T00:09:03.134Z,2.70
2023-11-23T00:10:05.175Z,2.80
2023-11-23T00:11:06.716Z,2.80
2023-11-23T00:12:08.197Z,2.80
2023-11-23T00:13:09.566Z,2.80
2023-11-23T00:14:10.842Z,2.80
2023-11-23T00:15:13.308Z,2.80
2023-11-23T00:16:16.617Z,2.80
2023-11-23T00:17:18.457Z,2.80
2023-11-23T00:18:19.972Z,2.80
2023-11-23T00:19:21.339Z,2.80
2023-11-23T00:20:22.933Z,2.80
2023-11-23T00:21:24.636Z,2.80
2023-11-23T00:22:27.166Z,2.70
2023-11-23T00:23:28.649Z,2.80
2023-11-23T00:24:30.216Z,2.70
2023-11-23T00:25:31.925Z,2.70
2023-11-23T00:26:34.679Z,2.70
2023-11-23T00:27:36.221Z,2.70
2023-11-23T00:28:39.302Z,2.70
2023-11-23T00:29:40.950Z,2.70
2023-11-23T00:30:42.350Z,2.70
2023-11-23T00:31:43.826Z,2.70
2023-11-23T00:32:45.395Z,2.70
2023-11-23T00:33:46.967Z,2.70
2023-11-23T00:34:49.089Z,2.70
2023-11-23T00:35:50.933Z,2.70
2023-11-23T00:36:52.420Z,2.70
2023-11-23T00:37:54.316Z,2.70
2023-11-23T00:38:56.616Z,2.70
2023-11-23T00:39:58.452Z,2.70
2023-11-23T00:41:01.736Z,2.70
2023-11-23T00:42:04.988Z,2.60
2023-11-23T00:43:06.371Z,2.60
2023-11-23T00:44:08.156Z,2.60
2023-11-23T00:45:10.472Z,2.50
2023-11-23T00:46:13.847Z,2.50
2023-11-23T00:47:16.245Z,2.50
2023-11-23T00:48:17.659Z,2.50
2023-11-23T00:49:19.227Z,2.40
2023-11-23T00:50:21.244Z,2.40
2023-11-23T00:51:23.389Z,2.40
2023-11-23T00:52:24.948Z,2.40
2023-11-23T00:53:26.535Z,2.40
2023-11-23T00:54:28.774Z,2.40
2023-11-23T00:55:31.057Z,2.40
2023-11-23T00:56:32.361Z,2.30
2023-11-23T00:57:35.567Z,2.30
2023-11-23T00:58:37.055Z,2.30
2023-11-23T00:59:38.519Z,2.30
2023-11-23T01:00:39.883Z,2.20
2023-11-23T01:01:41.344Z,2.30
2023-11-23T01:02:44.397Z,2.30
2023-11-23T01:03:45.995Z,2.20
2023-11-23T01:04:48.640Z,2.20
2023-11-23T01:05:50.042Z,2.20
2023-11-23T01:06:51.699Z,2.20
2023-11-23T01:07:53.858Z,2.10
2023-11-23T01:08:55.249Z,2.10
2023-11-23T01:09:56.995Z,2.10
2023-11-23T01:11:00.334Z,2.00
2023-11-23T01:12:02.435Z,2.00
2023-11-23T01:13:04.053Z,2.00
2023-11-23T01:14:05.498Z,2.00
2023-11-23T01:15:07.794Z,2.00
2023-11-23T01:16:10.038Z,2.00
2023-11-23T01:17:11.332Z,2.00
2023-11-23T01:18:13.103Z,1.90
2023-11-23T01:19:14.540Z,1.90
2023-11-23T01:20:15.989Z,1.90
2023-11-23T01:21:17.437Z,1.90
2023-11-23T01:22:18.812Z,1.90
2023-11-23T01:23:20.143Z,1.90
2023-11-23T01:24:21.433Z,1.90
2023-11-23T01:25:23.159Z,1.90
2023-11-23T01:26:24.483Z,1.90
2023-11-23T01:27:25.803Z,1.80
2023-11-23T01:28:27.361Z,1.90
2023-11-23T01:29:28.993Z,1.90
2023-11-23T01:30:30.377Z,1.90
2023-11-23T01:31:32.156Z,1.90
2023-11-23T01:32:34.168Z,1.90
2023-11-23T01:33:35.904Z,1.90
2023-11-23T01:34:37.374Z,1.90
2023-11-23T01:35:39.385Z,1.90
2023-11-23T01:36:40.788Z,1.90
2023-11-23T01:37:42.294Z,1.90
2023-11-23T01:38:43.988Z,1.90
2023-11-23T01:39:45.497Z,1.90
2023-11-23T01:40:47.740Z,1.80
2023-11-23T01:41:50.150Z,1.90
2023-11-23T01:42:51.763Z,1.80
2023-11-23T01:43:53.068Z,1.80
2023-11-23T01:44:54.727Z,1.80
2023-11-23T01:45:56.308Z,1.80
2023-11-23T01:46:59.601Z,1.80
2023-11-23T01:48:02.715Z,1.80
2023-11-23T01:49:04.806Z,1.80
2023-11-23T01:50:07.607Z,1.80
2023-11-23T01:51:10.266Z,1.80
2023-11-23T01:52:12.495Z,1.80
2023-11-23T01:53:14.588Z,1.80
2023-11-23T01:54:16.413Z,1.80
2023-11-23T01:55:18.490Z,1.80
2023-11-23T01:56:22.308Z,1.90
2023-11-23T01:57:24.885Z,2.00
2023-11-23T01:58:27.003Z,1.90
2023-11-23T01:59:30.342Z,1.90
2023-11-23T02:00:32.005Z,1.90
2023-11-23T02:01:33.509Z,1.90
2023-11-23T02:02:36.059Z,1.90
2023-11-23T02:03:38.938Z,1.90
2023-11-23T02:04:40.498Z,1.80
2023-11-23T02:05:41.901Z,1.90
2023-11-23T02:06:43.501Z,1.80
2023-11-23T02:07:45.996Z,1.80
2023-11-23T02:08:49.654Z,1.80
2023-11-23T02:09:51.141Z,1.80
2023-11-23T02:10:53.026Z,1.80
2023-11-23T02:11:54.748Z,1.80
2023-11-23T02:12:56.981Z,1.80
2023-11-23T02:13:59.755Z,1.70
2023-11-23T02:15:02.161Z,1.70
2023-11-23T02:16:04.318Z,1.70
2023-11-23T02:17:18.902Z,1.70
2023-11-23T02:18:21.604Z,1.70
2023-11-23T02:19:23.015Z,1.70
2023-11-23T02:20:24.680Z,1.70
2023-11-23T02:21:26.080Z,1.70
2023-11-23T02:22:30.169Z,1.70
2023-11-23T02:23:32.246Z,1.70
2023-11-23T02:24:33.644Z,1.60
2023-11-23T02:25:35.404Z,1.60
2023-11-23T02:26:36.764Z,1.60
2023-11-23T02:27:39.395Z,1.60
2023-11-23T02:28:40.917Z,1.60
2023-11-23T02:29:42.391Z,1.60
2023-11-23T02:30:43.934Z,1.60
2023-11-23T02:31:45.404Z,1.60
2023-11-23T02:32:47.497Z,1.60
2023-11-23T02:33:49.499Z,1.60
2023-11-23T02:34:50.882Z,1.50
2023-11-23T02:35:52.284Z,1.50
2023-11-23T02:36:55.396Z,1.50
2023-11-23T02:37:56.754Z,1.50
2023-11-23T02:38:58.261Z,1.50
2023-11-23T02:40:00.410Z,1.50
2023-11-23T02:41:01.964Z,1.50
2023-11-23T02:42:03.550Z,1.50
2023-11-23T02:43:08.563Z,1.50
2023-11-23T02:44:09.903Z,1.50
2023-11-23T02:45:12.071Z,1.50
2023-11-23T02:46:13.943Z,1.50
2023-11-23T02:47:15.291Z,1.40
2023-11-23T02:48:16.800Z,1.40
2023-11-23T02:49:21.917Z,1.40
2023-11-23T02:50:23.281Z,1.40
2023-11-23T02:51:24.667Z,1.40
2023-11-23T02:52:26.038Z,1.30
2023-11-23T02:53:33.006Z,1.30
2023-11-23T02:54:36.284Z,1.30
2023-11-23T02:55:37.722Z,1.30
2023-11-23T02:56:39.167Z,1.30
2023-11-23T02:57:43.162Z,1.30
2023-11-23T02:58:44.830Z,1.30
2023-11-23T02:59:46.587Z,1.20
2023-11-23T03:00:48.219Z,1.20
2023-11-23T03:01:49.647Z,1.30
2023-11-23T03:02:51.365Z,1.30
2023-11-23T03:03:56.362Z,1.30
2023-11-23T03:04:57.881Z,1.30
2023-11-23T03:06:00.795Z,1.30
2023-11-23T03:07:02.503Z,1.30
2023-11-23T03:08:04.225Z,1.20
2023-11-23T03:09:06.138Z,1.30
2023-11-23T03:10:08.231Z,1.20
2023-11-23T03:11:19.554Z,1.20
2023-11-23T03:12:21.133Z,1.20
2023-11-23T03:13:23.285Z,1.20
2023-11-23T03:14:25.019Z,1.20
2023-11-23T03:15:26.333Z,1.20
2023-11-23T03:16:27.658Z,1.20
2023-11-23T03:17:29.045Z,1.10
2023-11-23T03:18:30.487Z,1.10
2023-11-23T03:19:32.081Z,1.10
2023-11-23T03:20:33.636Z,1.10
2023-11-23T03:21:35.755Z,1.10
2023-11-23T03:22:37.574Z,1.10
2023-11-23T03:23:42.239Z,1.10
2023-11-23T03:24:44.374Z,1.10
2023-11-23T03:25:45.723Z,1.10
2023-11-23T03:26:47.387Z,1.10
2023-11-23T03:27:49.058Z,1.10
2023-11-23T03:28:50.890Z,1.10
2023-11-23T03:29:52.560Z,1.10
2023-11-23T03:30:55.231Z,1.10
2023-11-23T03:31:57.003Z,1.20
2023-11-23T03:32:59.623Z,1.20
2023-11-23T03:34:01.257Z,1.30
2023-11-23T03:35:02.801Z,1.30
2023-11-23T03:36:04.722Z,1.20
2023-11-23T03:37:06.109Z,1.20
2023-11-23T03:38:08.596Z,1.20
2023-11-23T03:39:10.258Z,1.20
2023-11-23T03:40:12.742Z,1.20
2023-11-23T03:41:14.118Z,1.20
2023-11-23T03:42:15.899Z,1.20
2023-11-23T03:43:17.283Z,1.20
2023-11-23T03:44:19.017Z,1.20
2023-11-23T03:45:22.177Z,1.20
2023-11-23T03:46:23.559Z,1.30
2023-11-23T03:47:24.941Z,1.20
2023-11-23T03:48:26.833Z,1.20
2023-11-23T03:49:28.462Z,1.20
2023-11-23T03:50:29.999Z,1.20
2023-11-23T03:51:32.537Z,1.20
2023-11-23T03:52:34.121Z,1.20
2023-11-23T03:53:35.432Z,1.30
2023-11-23T03:54:37.129Z,1.30
2023-11-23T03:55:38.580Z,1.30
2023-11-23T03:56:40.193Z,1.20
2023-11-23T03:57:41.973Z,1.20
2023-11-23T03:58:43.593Z,1.20
2023-11-23T03:59:45.394Z,1.20
2023-11-23T04:00:46.782Z,1.20
2023-11-23T04:01:48.906Z,1.20
2023-11-23T04:02:50.478Z,1.10
2023-11-23T04:03:51.961Z,1.20
2023-11-23T04:04:53.324Z,1.10
2023-11-23T04:05:55.142Z,1.10
2023-11-23T04:06:56.534Z,1.00
2023-11-23T04:07:58.127Z,1.00
2023-11-23T04:08:59.665Z,1.10
2023-11-23T04:10:01.648Z,1.00
2023-11-23T04:11:03.861Z,1.00
2023-11-23T04:12:06.002Z,0.90
2023-11-23T04:13:07.327Z,1.00
2023-11-23T04:14:08.958Z,1.00
2023-11-23T04:15:12.601Z,0.90
2023-11-23T04:16:13.993Z,1.00
2023-11-23T04:17:15.662Z,1.00
2023-11-23T04:18:17.135Z,1.00
2023-11-23T04:19:18.732Z,1.00
2023-11-23T04:20:20.082Z,1.00
2023-11-23T04:21:22.087Z,1.00
2023-11-23T04:22:23.721Z,1.00
2023-11-23T04:23:25.023Z,1.00
2023-11-23T04:24:27.815Z,1.00
2023-11-23T04:25:29.779Z,1.00
2023-11-23T04:26:32.724Z,1.00
2023-11-23T04:27:34.939Z,1.00
2023-11-23T04:28:36.954Z,0.90
2023-11-23T04:29:38.291Z,0.90
2023-11-23T04:30:39.633Z,0.90
2023-11-23T04:31:41.247Z,0.90
2023-11-23T04:32:42.608Z,0.90
2023-11-23T04:33:44.167Z,0.90
2023-11-23T04:34:47.853Z,0.90
2023-11-23T04:35:49.819Z,0.90
2023-11-23T04:36:51.174Z,0.90
2023-11-23T04:37:52.491Z,1.00
2023-11-23T04:38:54.277Z,1.00
2023-11-23T04:39:55.878Z,0.90
2023-11-23T04:40:57.535Z,0.90
2023-11-23T04:41:59.281Z,0.90
2023-11-23T04:43:00.977Z,0.80
2023-11-23T04:44:02.271Z,0.80
2023-11-23T04:45:04.557Z,0.80
2023-11-23T04:46:06.047Z,0.80
2023-11-23T04:47:07.470Z,0.80
2023-11-23T04:48:09.120Z,0.90
2023-11-23T04:49:10.558Z,0.80
2023-11-23T04:50:11.916Z,0.80
2023-11-23T04:51:13.857Z,0.80
2023-11-23T04:52:15.178Z,0.80
2023-11-23T04:53:18.957Z,0.80
2023-11-23T04:54:20.500Z,0.80
2023-11-23T04:55:23.036Z,0.70
2023-11-23T04:56:24.687Z,0.80
2023-11-23T04:57:26.118Z,0.70
2023-11-23T04:58:28.454Z,0.80
2023-11-23T04:59:30.139Z,0.70
2023-11-23T05:00:31.892Z,0.70
2023-11-23T05:01:33.368Z,0.70
2023-11-23T05:02:34.687Z,0.70
2023-11-23T05:03:37.099Z,0.80
2023-11-23T05:04:38.780Z,0.70
2023-11-23T05:05:40.119Z,0.70
2023-11-23T05:06:41.944Z,0.70
2023-11-23T05:07:43.259Z,0.80
2023-11-23T05:08:44.610Z,0.80
2023-11-23T05:09:45.960Z,0.70
2023-11-23T05:10:47.941Z,0.80
2023-11-23T05:11:49.676Z,0.80
2023-11-23T05:12:53.015Z,0.80
2023-11-23T05:13:54.315Z,0.70
2023-11-23T05:14:56.111Z,0.80
2023-11-23T05:15:57.865Z,0.80
2023-11-23T05:16:59.167Z,0.80
2023-11-23T05:18:00.693Z,0.70
2023-11-23T05:19:02.956Z,0.70
2023-11-23T05:20:05.419Z,0.70
2023-11-23T05:21:06.902Z,0.80
2023-11-23T05:22:08.243Z,0.80
2023-11-23T05:23:09.567Z,0.80
2023-11-23T05:24:11.291Z,0.70
2023-11-23T05:25:12.832Z,0.70
2023-11-23T05:26:14.291Z,0.70
2023-11-23T05:27:15.694Z,0.60
2023-11-23T05:28:17.536Z,0.60
2023-11-23T05:29:19.010Z,0.60
2023-11-23T05:30:21.077Z,0.60
2023-11-23T05:31:23.016Z,0.60
2023-11-23T05:32:24.948Z,0.60
2023-11-23T05:33:26.410Z,0.60
2023-11-23T05:34:27.987Z,0.60
2023-11-23T05:35:31.152Z,0.50
2023-11-23T05:36:32.689Z,0.60
2023-11-23T05:37:34.032Z,0.50
2023-11-23T05:38:35.475Z,0.60
2023-11-23T05:39:38.081Z,0.60
2023-11-23T05:40:41.169Z,0.60
2023-11-23T05:41:42.738Z,0.60
2023-11-23T05:42:54.095Z,0.60
2023-11-23T05:44:02.604Z,0.60
2023-11-23T05:45:04.800Z,0.60
2023-11-23T05:46:06.261Z,0.60
2023-11-23T05:47:07.685Z,0.50
2023-11-23T05:48:09.184Z,0.50
2023-11-23T05:49:12.120Z,0.60
2023-11-23T05:50:13.677Z,0.60
2023-11-23T05:51:15.355Z,0.60
2023-11-23T05:52:16.676Z,0.60
2023-11-23T05:53:18.218Z,0.60
2023-11-23T05:54:19.810Z,0.50
2023-11-23T05:55:21.882Z,0.50
2023-11-23T05:56:23.316Z,0.50
2023-11-23T05:57:25.495Z,0.50
2023-11-23T05:58:27.245Z,0.60
2023-11-23T05:59:28.529Z,0.60
2023-11-23T06:00:30.250Z,0.60
2023-11-23T06:01:31.820Z,0.60
2023-11-23T06:02:33.213Z,0.60
2023-11-23T06:03:34.734Z,0.60
2023-11-23T06:04:36.266Z,0.60
2023-11-23T06:05:37.904Z,0.60
2023-11-23T06:06:39.822Z,0.60
2023-11-23T06:07:41.168Z,0.70
2023-11-23T06:08:42.481Z,0.60
2023-11-23T06:09:44.089Z,0.60
2023-11-23T06:10:45.429Z,0.60
2023-11-23T06:11:47.243Z,0.50
2023-11-23T06:12:49.727Z,0.50
2023-11-23T06:13:51.353Z,0.50
2023-11-23T06:14:52.745Z,0.50
2023-11-23T06:15:54.249Z,0.50
2023-11-23T06:16:55.791Z,0.50
2023-11-23T06:18:07.513Z,0.50
2023-11-23T06:19:15.100Z,0.50
2023-11-23T06:20:17.723Z,0.50
2023-11-23T06:21:19.184Z,0.50
2023-11-23T06:22:20.618Z,0.40
2023-11-23T06:23:22.106Z,0.50
2023-11-23T06:24:24.435Z,0.50
2023-11-23T06:25:26.749Z,0.50
2023-11-23T06:26:28.609Z,0.60
2023-11-23T06:27:31.668Z,0.60
2023-11-23T06:28:33.244Z,0.60
2023-11-23T06:29:34.562Z,0.60
2023-11-23T06:30:36.476Z,0.60
2023-11-23T06:31:38.124Z,0.60
2023-11-23T06:32:39.685Z,0.70
2023-11-23T06:33:41.071Z,0.60
2023-11-23T06:34:42.441Z,0.60
2023-11-23T06:35:44.129Z,0.60
2023-11-23T06:36:47.572Z,0.60
2023-11-23T06:37:49.807Z,0.60
2023-11-23T06:38:51.131Z,0.50
2023-11-23T06:39:55.828Z,0.50
2023-11-23T06:40:58.099Z,0.60
2023-11-23T06:41:59.478Z,0.60
2023-11-23T06:43:04.709Z,0.60
2023-11-23T06:44:06.482Z,0.60
2023-11-23T06:45:08.555Z,0.60
2023-11-23T06:46:09.935Z,0.60
2023-11-23T06:47:11.984Z,0.60
2023-11-23T06:48:13.578Z,0.60
2023-11-23T06:49:15.127Z,0.60
2023-11-23T06:50:16.545Z,0.60
2023-11-23T06:51:18.112Z,0.70
2023-11-23T06:52:19.433Z,0.60
2023-11-23T06:53:22.686Z,0.60
2023-11-23T06:54:25.037Z,0.60
2023-11-23T06:55:26.451Z,0.60
2023-11-23T06:56:27.816Z,0.60
2023-11-23T06:57:29.282Z,0.70
2023-11-23T06:58:31.112Z,0.60
2023-11-23T06:59:34.724Z,0.60
2023-11-23T07:00:36.188Z,0.60
2023-11-23T07:01:37.705Z,0.60
2023-11-23T07:02:39.167Z,0.60
2023-11-23T07:03:42.712Z,0.60
2023-11-23T07:04:44.213Z,0.60
2023-11-23T07:05:45.843Z,0.70
2023-11-23T07:06:47.163Z,0.60
2023-11-23T07:07:49.072Z,0.60
2023-11-23T07:08:50.952Z,0.60
2023-11-23T07:09:53.041Z,0.60
2023-11-23T07:10:54.471Z,0.60
2023-11-23T07:11:56.094Z,0.60
2023-11-23T07:12:57.449Z,0.60
2023-11-23T07:13:58.860Z,0.60
2023-11-23T07:15:00.317Z,0.60
2023-11-23T07:16:04.594Z,0.60
2023-11-23T07:17:05.980Z,0.60
2023-11-23T07:18:07.383Z,0.60
2023-11-23T07:19:08.950Z,0.60
2023-11-23T07:20:13.847Z,0.70
2023-11-23T07:21:15.646Z,0.70
2023-11-23T07:22:17.020Z,0.70
2023-11-23T07:23:18.357Z,0.70
2023-11-23T07:24:19.771Z,0.70
2023-11-23T07:25:21.602Z,0.80
2023-11-23T07:26:22.950Z,0.80
2023-11-23T07:27:24.286Z,0.80
2023-11-23T07:28:28.220Z,0.80
2023-11-23T07:29:30.106Z,0.80
2023-11-23T07:30:32.804Z,0.80
2023-11-23T07:31:34.397Z,0.80
2023-11-23T07:32:36.980Z,0.80
2023-11-23T07:33:39.756Z,0.80
2023-11-23T07:34:41.618Z,0.80
2023-11-23T07:35:47.340Z,0.80
2023-11-23T07:36:48.650Z,0.80
2023-11-23T07:37:50.088Z,0.80
2023-11-23T07:38:52.004Z,0.80
2023-11-23T07:39:53.443Z,0.80
2023-11-23T07:40:54.770Z,0.90
2023-11-23T07:41:56.266Z,0.90
2023-11-23T07:42:58.201Z,0.90
2023-11-23T07:44:00.834Z,0.80
2023-11-23T07:45:03.889Z,0.90
2023-11-23T07:46:06.337Z,0.90
2023-11-23T07:47:12.145Z,0.90
2023-11-23T07:48:15.583Z,0.90
2023-11-23T07:49:17.816Z,0.90
2023-11-23T07:50:19.193Z,0.90
2023-11-23T07:51:20.835Z,0.90
2023-11-23T07:52:22.204Z,1.00
2023-11-23T07:53:27.386Z,0.90
2023-11-23T07:54:29.207Z,0.90
2023-11-23T07:55:32.028Z,0.90
2023-11-23T07:56:34.043Z,1.00
2023-11-23T07:57:36.097Z,1.00
2023-11-23T07:58:37.661Z,1.00
2023-11-23T07:59:40.180Z,1.00
2023-11-23T08:00:41.758Z,1.00
2023-11-23T08:01:43.226Z,1.00
2023-11-23T08:02:44.604Z,1.00
2023-11-23T08:03:46.136Z,1.00
2023-11-23T08:04:47.581Z,1.10
2023-11-23T08:05:49.100Z,1.10
2023-11-23T08:06:51.781Z,1.10
2023-11-23T08:07:53.226Z,1.10
2023-11-23T08:08:54.993Z,1.10
2023-11-23T08:09:58.766Z,1.10
2023-11-23T08:11:00.409Z,1.20
2023-11-23T08:12:02.991Z,1.20
2023-11-23T08:13:05.392Z,1.30
2023-11-23T08:14:07.362Z,1.30
2023-11-23T08:15:09.444Z,1.30
2023-11-23T08:16:11.517Z,1.30
2023-11-23T08:17:14.326Z,1.30
2023-11-23T08:18:16.013Z,1.30
2023-11-23T08:19:17.521Z,1.30
2023-11-23T08:20:19.391Z,1.40
2023-11-23T08:21:22.032Z,1.40
2023-11-23T08:22:23.641Z,1.40
2023-11-23T08:23:25.184Z,1.40
2023-11-23T08:24:27.117Z,1.40
2023-11-23T08:25:29.044Z,1.50
2023-11-23T08:26:32.236Z,1.50
2023-11-23T08:27:35.170Z,1.40
2023-11-23T08:28:38.331Z,1.40
2023-11-23T08:29:39.847Z,1.40
2023-11-23T08:30:41.582Z,1.50
2023-11-23T08:31:44.973Z,1.40
2023-11-23T08:32:46.708Z,1.40
2023-11-23T08:33:48.083Z,1.40
2023-11-23T08:34:49.722Z,1.50
2023-11-23T08:35:54.718Z,1.60
2023-11-23T08:36:56.063Z,1.50
2023-11-23T08:37:57.619Z,1.50
2023-11-23T08:38:59.610Z,1.60
2023-11-23T08:40:00.958Z,1.60
2023-11-23T08:41:02.376Z,1.60
2023-11-23T08:42:04.052Z,1.60
2023-11-23T08:43:07.269Z,1.60
2023-11-23T08:44:09.090Z,1.60
2023-11-23T08:45:10.969Z,1.70
2023-11-23T08:46:13.373Z,1.70
2023-11-23T08:47:15.024Z,1.80
2023-11-23T08:48:17.096Z,1.80
2023-11-23T08:49:19.112Z,1.80
2023-11-23T08:50:20.855Z,1.80
2023-11-23T08:51:22.219Z,1.80
2023-11-23T08:52:23.695Z,1.80
2023-11-23T08:53:25.851Z,1.90
2023-11-23T08:54:27.304Z,1.90
2023-11-23T08:55:29.387Z,2.00
2023-11-23T08:56:31.202Z,2.00
2023-11-23T08:57:33.053Z,2.00
2023-11-23T08:58:34.631Z,2.00
2023-11-23T08:59:38.524Z,2.10
2023-11-23T09:00:39.962Z,2.10
2023-11-23T09:01:44.825Z,2.10
2023-11-23T09:02:47.805Z,2.10
2023-11-23T09:03:49.620Z,2.10
2023-11-23T09:04:52.286Z,2.10
2023-11-23T09:05:54.113Z,2.10
2023-11-23T09:06:55.500Z,2.20
2023-11-23T09:07:57.130Z,2.20
2023-11-23T09:09:01.470Z,2.20
2023-11-23T09:10:02.977Z,2.20
2023-11-23T09:11:04.299Z,2.20
2023-11-23T09:12:05.997Z,2.20
2023-11-23T09:13:07.325Z,2.20
2023-11-23T09:14:10.204Z,2.20
2023-11-23T09:15:14.217Z,2.30
2023-11-23T09:16:15.628Z,2.40
2023-11-23T09:17:17.597Z,2.40
2023-11-23T09:18:19.652Z,2.50
2023-11-23T09:19:21.460Z,2.50
2023-11-23T09:20:23.160Z,2.50
2023-11-23T09:21:25.301Z,2.50
2023-11-23T09:22:27.508Z,2.40
2023-11-23T09:23:29.513Z,2.40
2023-11-23T09:24:31.856Z,2.40
2023-11-23T09:25:35.359Z,2.50
2023-11-23T09:26:36.803Z,2.40
2023-11-23T09:27:38.234Z,2.40
2023-11-23T09:28:39.916Z,2.50
2023-11-23T09:29:41.557Z,2.50
2023-11-23T09:30:43.291Z,2.50
2023-11-23T09:31:44.751Z,2.60
2023-11-23T09:32:46.471Z,2.60
2023-11-23T09:33:48.266Z,2.60
2023-11-23T09:34:50.564Z,2.70
2023-11-23T09:35:52.459Z,2.70
2023-11-23T09:36:54.117Z,2.70
2023-11-23T09:37:55.614Z,2.70
2023-11-23T09:39:01.343Z,2.70
2023-11-23T09:40:06.517Z,2.80
2023-11-23T09:41:12.721Z,2.90
2023-11-23T09:42:17.977Z,3.00
2023-11-23T09:43:19.653Z,3.00
2023-11-23T09:44:21.497Z,3.10
2023-11-23T09:45:26.558Z,3.10
2023-11-23T09:46:30.420Z,3.00
2023-11-23T09:47:33.026Z,3.10
2023-11-23T09:48:38.221Z,3.10
2023-11-23T09:49:40.159Z,3.10
2023-11-23T09:50:42.829Z,3.00
2023-11-23T09:51:46.087Z,3.00
2023-11-23T09:52:48.368Z,3.10
2023-11-23T09:53:53.554Z,3.10
2023-11-23T09:54:58.259Z,3.10
2023-11-23T09:56:02.677Z,3.10
2023-11-23T09:57:05.848Z,3.10
2023-11-23T09:58:07.296Z,3.10
2023-11-23T09:59:08.836Z,3.20
2023-11-23T10:00:11.024Z,3.20
2023-11-23T10:01:13.140Z,3.20
2023-11-23T10:02:15.599Z,3.20
2023-11-23T10:03:23.183Z,3.20
2023-11-23T10:04:24.585Z,3.20
2023-11-23T10:05:27.313Z,3.20
2023-11-23T10:06:28.805Z,3.30
2023-11-23T10:07:31.223Z,3.30
2023-11-23T10:08:34.749Z,3.30
2023-11-23T10:09:37.377Z,3.30
2023-11-23T10:10:39.849Z,3.30
2023-11-23T10:11:42.118Z,3.40
2023-11-23T10:12:45.964Z,3.50
2023-11-23T10:13:47.704Z,3.50
2023-11-23T10:14:49.414Z,3.50
2023-11-23T10:15:51.298Z,3.50
2023-11-23T10:16:53.236Z,3.50
2023-11-23T10:17:54.789Z,3.50
2023-11-23T10:18:56.555Z,3.50
2023-11-23T10:20:14.031Z,3.50
2023-11-23T10:21:15.957Z,3.50
2023-11-23T10:22:17.578Z,3.60
2023-11-23T10:23:22.306Z,3.60
2023-11-23T10:24:25.164Z,3.60
2023-11-23T10:25:34.333Z,3.60
2023-11-23T10:26:35.853Z,3.60
2023-11-23T10:27:37.807Z,3.70
2023-11-23T10:28:39.809Z,3.70
2023-11-23T10:29:42.024Z,3.70
2023-11-23T10:30:43.719Z,3.70
2023-11-23T10:31:45.722Z,3.70
2023-11-23T10:32:48.023Z,3.80
2023-11-23T10:33:50.298Z,3.80
2023-11-23T10:34:52.980Z,3.80
2023-11-23T10:35:56.522Z,3.90
2023-11-23T10:36:59.123Z,3.90
2023-11-23T10:38:02.066Z,3.90
2023-11-23T10:39:06.001Z,3.90
2023-11-23T10:40:10.752Z,4.00
2023-11-23T10:41:15.956Z,4.10
2023-11-23T10:42:20.468Z,4.20
2023-11-23T10:43:22.546Z,4.20
2023-11-23T10:44:25.024Z,4.10
2023-11-23T10:45:28.631Z,4.20
2023-11-23T10:46:30.659Z,4.20
2023-11-23T10:47:33.340Z,4.20
2023-11-23T10:48:36.072Z,4.20
2023-11-23T10:49:40.016Z,4.10
2023-11-23T10:50:41.815Z,4.10
2023-11-23T10:51:45.042Z,4.20
2023-11-23T10:52:47.496Z,4.10
2023-11-23T10:53:49.485Z,4.20
2023-11-23T10:54:51.002Z,4.20
2023-11-23T10:55:53.011Z,4.20
2023-11-23T10:56:57.008Z,4.20
2023-11-23T10:58:06.866Z,4.20
2023-11-23T10:59:14.616Z,4.20
2023-11-23T11:00:17.218Z,4.20
2023-11-23T11:01:22.776Z,4.20
2023-11-23T11:02:25.801Z,4.20
2023-11-23T11:03:29.342Z,4.20
2023-11-23T11:04:31.003Z,4.30
2023-11-23T11:05:36.354Z,4.20
2023-11-23T11:06:46.354Z,4.30
2023-11-23T11:08:06.342Z,4.30
2023-11-23T11:09:15.216Z,4.30
2023-11-23T11:10:16.615Z,4.30
2023-11-23T11:11:22.227Z,4.40
2023-11-23T11:12:23.598Z,4.40
2023-11-23T11:13:27.174Z,4.40
2023-11-23T11:14:32.171Z,4.40
2023-11-23T11:15:33.746Z,4.50
2023-11-23T11:16:36.526Z,4.60
2023-11-23T11:17:40.877Z,4.60
2023-11-23T11:18:54.394Z,4.70
2023-11-23T11:19:56.657Z,4.60
2023-11-23T11:21:14.148Z,4.60
2023-11-23T11:22:17.194Z,4.60
2023-11-23T11:23:18.560Z,4.70
2023-11-23T11:24:25.073Z,4.60
2023-11-23T11:25:40.443Z,4.80
2023-11-23T11:26:42.770Z,4.80
2023-11-23T11:27:44.219Z,4.80
2023-11-23T11:28:59.587Z,4.80
2023-11-23T11:30:01.430Z,4.80
2023-11-23T11:31:10.285Z,4.70
2023-11-23T11:32:12.154Z,4.70
2023-11-23T11:33:15.854Z,4.70
2023-11-23T11:34:22.306Z,4.70
2023-11-23T11:35:27.454Z,4.70
2023-11-23T11:36:29.675Z,4.80
2023-11-23T11:37:32.511Z,4.80
2023-11-23T11:38:37.004Z,4.80
2023-11-23T11:39:40.551Z,4.80
2023-11-23T11:40:44.252Z,4.90
2023-11-23T11:41:48.676Z,4.80
2023-11-23T11:42:51.944Z,4.90
2023-11-23T11:43:54.036Z,4.90
2023-11-23T11:44:55.545Z,4.90
2023-11-23T11:45:57.287Z,4.90
2023-11-23T11:46:58.703Z,4.90
2023-11-23T11:48:00.172Z,5.00
2023-11-23T11:49:02.426Z,5.00
2023-11-23T11:50:04.756Z,5.00
2023-11-23T11:51:07.179Z,5.00
2023-11-23T11:52:10.666Z,5.00
2023-11-23T11:53:12.075Z,5.00
2023-11-23T11:54:13.431Z,5.00
2023-11-23T11:55:15.096Z,5.00
2023-11-23T11:56:17.011Z,5.00
2023-11-23T11:57:19.768Z,5.00
2023-11-23T11:58:21.980Z,5.10
2023-11-23T11:59:28.876Z,5.10
2023-11-23T12:00:35.959Z,5.20
2023-11-23T12:01:37.354Z,5.20
2023-11-23T12:02:39.887Z,5.20
2023-11-23T12:03:41.376Z,5.20
2023-11-23T12:04:43.166Z,5.20
2023-11-23T12:05:46.585Z,5.20
2023-11-23T12:06:54.388Z,5.20
2023-11-23T12:07:55.928Z,5.10
2023-11-23T12:08:58.576Z,5.20
2023-11-23T12:10:04.745Z,5.20
2023-11-23T12:11:07.473Z,5.20
2023-11-23T12:12:12.249Z,5.20
2023-11-23T12:13:24.002Z,5.20
2023-11-23T12:14:35.189Z,5.20
2023-11-23T12:15:41.537Z,5.20
2023-11-23T12:16:43.584Z,5.20
2023-11-23T12:17:49.680Z,5.30
2023-11-23T12:18:51.345Z,5.30
2023-11-23T12:19:54.691Z,5.30
2023-11-23T12:20:57.311Z,5.40
2023-11-23T12:21:59.185Z,5.30
2023-11-23T12:23:04.482Z,5.30
2023-11-23T12:24:06.333Z,5.30
2023-11-23T12:25:08.692Z,5.40
2023-11-23T12:26:11.505Z,5.40
2023-11-23T12:27:16.320Z,5.50
2023-11-23T12:28:19.787Z,5.40
2023-11-23T12:29:25.940Z,5.50
2023-11-23T12:30:28.094Z,5.40
2023-11-23T12:31:29.492Z,5.50
2023-11-23T12:32:31.198Z,5.60
2023-11-23T12:33:34.519Z,5.50
2023-11-23T12:34:35.929Z,5.50
2023-11-23T12:35:37.702Z,5.50
2023-11-23T12:36:39.041Z,5.50
2023-11-23T12:37:40.369Z,5.60
2023-11-23T12:38:41.675Z,5.50
2023-11-23T12:39:43.144Z,5.50
2023-11-23T12:40:45.042Z,5.50
2023-11-23T12:41:52.955Z,5.50
2023-11-23T12:42:56.607Z,5.50
2023-11-23T12:43:58.539Z,5.50
2023-11-23T12:45:00.360Z,5.60
2023-11-23T12:46:01.962Z,5.50
2023-11-23T12:47:04.295Z,5.50
2023-11-23T12:48:06.134Z,5.60
2023-11-23T12:49:07.983Z,5.50
2023-11-23T12:50:11.839Z,5.60
2023-11-23T12:51:14.201Z,5.60
2023-11-23T12:52:17.417Z,5.70
2023-11-23T12:53:19.421Z,5.70
2023-11-23T12:54:21.412Z,5.70
2023-11-23T12:55:23.170Z,5.70
2023-11-23T12:56:25.208Z,5.80
2023-11-23T12:57:28.073Z,5.70
2023-11-23T12:58:29.455Z,5.70
2023-11-23T12:59:31.748Z,5.80
2023-11-23T13:00:37.180Z,5.80
2023-11-23T13:01:40.429Z,5.80
2023-11-23T13:02:43.743Z,5.80
2023-11-23T13:03:45.268Z,5.80
2023-11-23T13:04:46.871Z,5.80
2023-11-23T13:05:50.857Z,5.80
2023-11-23T13:06:52.307Z,5.80
2023-11-23T13:07:54.165Z,5.90
2023-11-23T13:08:56.478Z,5.90
2023-11-23T13:09:58.936Z,5.90
2023-11-23T13:11:00.703Z,5.90
2023-11-23T13:12:05.214Z,5.90
2023-11-23T13:13:07.185Z,5.90
2023-11-23T13:14:09.229Z,5.90
2023-11-23T13:15:13.448Z,6.00
2023-11-23T13:16:18.660Z,6.00
2023-11-23T13:17:20.119Z,5.90
2023-11-23T13:18:23.571Z,5.90
2023-11-23T13:19:33.913Z,6.00
2023-11-23T13:20:44.451Z,6.00
2023-11-23T13:21:46.644Z,5.90
2023-11-23T13:22:48.426Z,5.80
2023-11-23T13:23:50.049Z,5.80
2023-11-23T13:24:53.581Z,5.70
2023-11-23T13:25:55.787Z,5.70
2023-11-23T13:26:57.581Z,5.60
2023-11-23T13:27:59.295Z,5.60
2023-11-23T13:29:01.313Z,5.50
2023-11-23T13:30:03.866Z,5.50
2023-11-23T13:31:07.633Z,5.30
2023-11-23T13:32:08.996Z,5.20
2023-11-23T13:33:16.870Z,5.10
2023-11-23T13:34:20.797Z,5.00
2023-11-23T13:35:23.988Z,5.00
2023-11-23T13:36:25.408Z,5.00
2023-11-23T13:37:26.992Z,4.90
2023-11-23T13:38:28.537Z,4.90
2023-11-23T13:39:32.648Z,4.80
2023-11-23T13:40:34.170Z,4.80
2023-11-23T13:41:36.296Z,4.80
2023-11-23T13:42:37.729Z,4.70
2023-11-23T13:43:39.388Z,4.70
2023-11-23T13:44:40.946Z,4.70
2023-11-23T13:45:45.749Z,4.70
2023-11-23T13:46:48.122Z,4.70
2023-11-23T13:47:51.447Z,4.80
2023-11-23T13:48:53.847Z,4.90
2023-11-23T13:49:55.843Z,4.90
2023-11-23T13:50:57.465Z,4.90
2023-11-23T13:51:59.541Z,5.00